Terminal Aerodrome Forecast
Issued by NWS

Home | Current Version | Previous Version | Text Only | Print | Product List | Glossary On
Versions: 1 2 3 4 5 6 7 8 9 10 11 12 13
905
FTUS46 KMTR 250529
TAFSJC
TAF
KSJC 250529Z 2506/2606 15010KT P6SM FEW015 SCT250
     FM250700 15012G19KT P6SM SCT015
      TEMPO 2509/2512 BKN015
     FM251200 15010KT P6SM OVC020
     FM251730 22010KT P6SM SCT035
     FM260400 21008KT P6SM SCT035=

USA.gov is the U.S. government's official web portal to all federal, state and local government web resources and services.